Time;durP1;ratioP1;P1;durP2;ratioP2;P2;SDS_P1;SDS_P2;PMS_P1;PMS_P2;Temp;Humidity;BMP_temperature;BMP_pressure;BME280_temperature;BME280_humidity;BME280_pressure;Samples;Min_cycle;Max_cycle;Signal;HPM_P1;HPM_P2
2023/09/19 00:01:08;;;;;;;19.58;11.13;;;;;;;;;;5030522;28;20510;-59
2023/09/19 00:03:38;;;;;;;16.48;11.20;;;;;;;;;;5013674;28;20378;-59
2023/09/19 00:06:05;;;;;;;12.93;10.55;;;;;;;;;;5024900;28;20463;-59
2023/09/19 00:08:33;;;;;;;14.73;11.05;;;;;;;;;;5031950;28;20423;-59
2023/09/19 00:11:05;;;;;;;13.75;11.88;;;;;;;;;;5031989;28;20142;-59
2023/09/19 00:13:32;;;;;;;20.90;12.77;;;;;;;;;;5032770;28;20441;-59
2023/09/19 00:15:58;;;;;;;16.40;12.18;;;;;;;;;;5031648;28;20033;-59
2023/09/19 00:18:29;;;;;;;17.83;12.23;;;;;;;;;;5031899;28;20426;-59
2023/09/19 00:20:58;;;;;;;18.15;13.48;;;;;;;;;;5031553;28;20061;-59
2023/09/19 00:23:24;;;;;;;19.45;12.80;;;;;;;;;;5031923;28;20467;-59
2023/09/19 00:25:50;;;;;;;18.55;13.98;;;;;;;;;;5031815;28;20026;-60
2023/09/19 00:28:19;;;;;;;19.23;12.82;;;;;;;;;;5013947;28;20030;-59
2023/09/19 00:30:54;;;;;;;19.67;11.13;;;;;;;;;;5031676;28;20511;-59
2023/09/19 00:33:20;;;;;;;15.90;11.27;;;;;;;;;;5031898;28;20025;-59
2023/09/19 00:35:50;;;;;;;19.73;11.93;;;;;;;;;;5031643;28;20060;-59
2023/09/19 00:38:17;;;;;;;12.63;10.73;;;;;;;;;;5013712;28;20441;-59
2023/09/19 00:40:46;;;;;;;17.70;11.27;;;;;;;;;;5031391;28;20025;-58
2023/09/19 00:43:12;;;;;;;18.00;13.07;;;;;;;;;;5031593;28;20440;-58
2023/09/19 00:45:39;;;;;;;17.85;12.07;;;;;;;;;;5031331;28;20033;-58
2023/09/19 00:48:08;;;;;;;19.90;13.82;;;;;;;;;;5031405;28;20021;-59
2023/09/19 00:50:35;;;;;;;22.33;14.23;;;;;;;;;;5031528;28;20044;-59
2023/09/19 00:53:01;;;;;;;19.30;14.43;;;;;;;;;;5031490;28;20033;-59
2023/09/19 00:55:32;;;;;;;21.05;14.57;;;;;;;;;;5031744;28;20026;-59
2023/09/19 00:57:58;;;;;;;22.55;15.68;;;;;;;;;;5031362;28;20025;-59
2023/09/19 01:00:24;;;;;;;21.30;15.23;;;;;;;;;;5013660;28;20030;-58
2023/09/19 01:02:50;;;;;;;21.77;14.43;;;;;;;;;;5031354;28;20134;-58
2023/09/19 01:05:17;;;;;;;20.27;14.30;;;;;;;;;;5030844;28;20383;-58
2023/09/19 01:07:48;;;;;;;17.73;13.82;;;;;;;;;;5030524;28;20014;-61
2023/09/19 01:10:15;;;;;;;18.75;13.40;;;;;;;;;;5026125;28;20021;-60
2023/09/19 01:12:53;;;;;;;20.90;14.55;;;;;;;;;;5033864;28;20446;-60
2023/09/19 01:15:23;;;;;;;18.95;13.05;;;;;;;;;;5033260;28;20021;-60
2023/09/19 01:17:53;;;;;;;18.73;13.05;;;;;;;;;;5033745;28;20451;-60
2023/09/19 01:20:27;;;;;;;17.45;11.20;;;;;;;;;;5034111;28;20048;-60
2023/09/19 01:22:56;;;;;;;14.85;9.82;;;;;;;;;;5034466;28;20068;-60
2023/09/19 01:25:36;;;;;;;13.25;9.68;;;;;;;;;;5016270;28;20049;-60
2023/09/19 01:28:05;;;;;;;13.25;8.27;;;;;;;;;;5034507;28;20018;-60
2023/09/19 01:30:33;;;;;;;11.73;8.20;;;;;;;;;;5034100;28;20030;-60
2023/09/19 01:33:00;;;;;;;10.27;7.55;;;;;;;;;;5034136;28;20113;-59
2023/09/19 01:35:26;;;;;;;9.30;7.00;;;;;;;;;;5034336;28;20415;-59
2023/09/19 01:37:53;;;;;;;11.32;6.60;;;;;;;;;;5034391;28;20052;-59
2023/09/19 01:40:21;;;;;;;9.90;6.18;;;;;;;;;;5034322;28;20075;-59
2023/09/19 01:42:47;;;;;;;9.23;5.85;;;;;;;;;;5033985;28;20025;-59
2023/09/19 01:45:21;;;;;;;8.73;6.65;;;;;;;;;;5033780;28;20029;-59
2023/09/19 01:47:58;;;;;;;13.10;5.55;;;;;;;;;;5034063;28;20021;-59
2023/09/19 01:50:31;;;;;;;9.80;5.70;;;;;;;;;;5033757;28;20435;-59
2023/09/19 01:53:20;;;;;;;7.05;5.50;;;;;;;;;;5034205;28;20387;-59
2023/09/19 01:55:49;;;;;;;7.97;5.75;;;;;;;;;;4988730;28;20111;-59
2023/09/19 01:58:19;;;;;;;8.40;5.68;;;;;;;;;;5033624;28;20045;-59
2023/09/19 02:00:47;;;;;;;5.43;4.90;;;;;;;;;;5033806;28;20025;-59
2023/09/19 02:03:14;;;;;;;6.55;4.70;;;;;;;;;;5018103;28;20096;-59
2023/09/19 02:05:40;;;;;;;6.70;4.65;;;;;;;;;;5033923;28;20384;-59
2023/09/19 02:08:06;;;;;;;7.25;5.03;;;;;;;;;;5033537;28;20485;-59
2023/09/19 02:10:34;;;;;;;7.60;5.30;;;;;;;;;;5033525;28;20049;-59
2023/09/19 02:13:00;;;;;;;9.25;5.28;;;;;;;;;;5033353;28;20033;-59
2023/09/19 02:15:32;;;;;;;7.35;5.07;;;;;;;;;;5033353;28;20465;-59
2023/09/19 02:17:59;;;;;;;7.57;4.88;;;;;;;;;;5002324;28;20394;-59
2023/09/19 02:20:26;;;;;;;8.85;4.95;;;;;;;;;;5031435;28;20049;-59
2023/09/19 02:22:58;;;;;;;7.10;5.15;;;;;;;;;;5033390;28;20054;-58
2023/09/19 02:25:26;;;;;;;6.13;4.38;;;;;;;;;;5033227;28;20017;-59
2023/09/19 02:27:53;;;;;;;7.40;4.55;;;;;;;;;;5032688;28;20017;-59
2023/09/19 02:30:25;;;;;;;9.85;5.32;;;;;;;;;;5032026;28;20124;-59
2023/09/19 02:32:51;;;;;;;6.97;4.30;;;;;;;;;;5032137;28;20108;-59
2023/09/19 02:35:19;;;;;;;7.18;3.95;;;;;;;;;;5032255;28;20105;-59
2023/09/19 02:37:45;;;;;;;11.40;4.57;;;;;;;;;;5026646;28;20056;-59
2023/09/19 02:40:21;;;;;;;7.85;5.15;;;;;;;;;;5032819;28;20090;-59
2023/09/19 02:42:53;;;;;;;6.70;4.60;;;;;;;;;;5032970;28;20021;-59
2023/09/19 02:45:19;;;;;;;6.70;4.72;;;;;;;;;;5032770;28;20112;-59
2023/09/19 02:47:45;;;;;;;7.43;5.72;;;;;;;;;;5032976;28;20029;-59
2023/09/19 02:50:13;;;;;;;8.25;4.85;;;;;;;;;;5014884;28;20029;-59
2023/09/19 02:52:39;;;;;;;10.48;4.70;;;;;;;;;;5032482;28;20021;-59
2023/09/19 02:55:09;;;;;;;9.15;5.32;;;;;;;;;;5032657;28;20096;-58
2023/09/19 02:57:35;;;;;;;7.60;4.40;;;;;;;;;;5032629;28;20435;-59
2023/09/19 03:00:02;;;;;;;6.82;4.53;;;;;;;;;;5031530;28;20084;-59
2023/09/19 03:02:28;;;;;;;9.25;4.78;;;;;;;;;;5032758;28;20025;-59
2023/09/19 03:04:56;;;;;;;8.85;4.90;;;;;;;;;;5032454;28;20516;-59
2023/09/19 03:07:22;;;;;;;10.10;4.40;;;;;;;;;;5032434;28;20483;-59
2023/09/19 03:09:48;;;;;;;6.28;4.72;;;;;;;;;;5032215;28;20041;-59
2023/09/19 03:12:16;;;;;;;6.22;5.00;;;;;;;;;;5015666;28;20024;-59
2023/09/19 03:14:42;;;;;;;8.88;4.78;;;;;;;;;;5032067;28;20087;-59
2023/09/19 03:17:09;;;;;;;7.20;4.18;;;;;;;;;;5014145;28;20037;-58
2023/09/19 03:19:35;;;;;;;7.25;4.32;;;;;;;;;;5031700;28;20046;-60
2023/09/19 03:22:02;;;;;;;7.32;4.53;;;;;;;;;;5031984;28;20052;-59
2023/09/19 03:24:29;;;;;;;6.82;4.85;;;;;;;;;;5032226;28;20124;-59
2023/09/19 03:26:55;;;;;;;7.43;5.05;;;;;;;;;;5032240;28;20104;-59
2023/09/19 03:29:22;;;;;;;7.60;4.82;;;;;;;;;;5031834;28;20171;-59
2023/09/19 03:31:48;;;;;;;5.10;4.05;;;;;;;;;;5031463;28;20076;-58
2023/09/19 03:34:14;;;;;;;8.88;5.53;;;;;;;;;;5030146;28;20034;-58
2023/09/19 03:36:41;;;;;;;10.15;5.15;;;;;;;;;;5030073;28;20029;-59
2023/09/19 03:39:07;;;;;;;8.73;4.50;;;;;;;;;;5029556;28;20546;-58
2023/09/19 03:41:36;;;;;;;7.18;5.18;;;;;;;;;;5029041;28;20079;-58
2023/09/19 03:44:02;;;;;;;9.57;5.15;;;;;;;;;;5029084;28;20021;-60
2023/09/19 03:46:28;;;;;;;6.22;4.75;;;23.90;99.90;;;;;;5022920;28;20021;-59
2023/09/19 03:48:54;;;;;;;8.50;5.05;;;39.50;1.00;;;;;;5026720;28;20029;-59
2023/09/19 03:51:20;;;;;;;4.93;4.30;;;39.20;1.00;;;;;;5000966;28;20068;-58
2023/09/19 03:53:46;;;;;;;7.18;4.95;;;39.20;1.00;;;;;;5032337;28;20108;-59
2023/09/19 03:56:12;;;;;;;8.05;5.15;;;39.20;1.00;;;;;;5032211;28;20049;-59
2023/09/19 03:58:39;;;;;;;7.75;4.70;;;39.10;1.00;;;;;;5032437;28;20447;-59
2023/09/19 04:01:06;;;;;;;10.05;4.68;;;39.20;1.00;;;;;;5032072;28;20010;-59
2023/09/19 04:03:45;;;;;;;6.35;4.35;;;39.20;1.00;;;;;;5014380;28;20378;-59
2023/09/19 04:06:15;;;;;;;9.10;4.82;;;39.10;1.00;;;;;;5031998;28;20371;-60
2023/09/19 04:08:41;;;;;;;7.70;5.13;;;39.20;1.00;;;;;;5032066;28;20106;-59
2023/09/19 04:11:07;;;;;;;7.60;5.15;;;39.20;1.00;;;;;;5031881;28;20108;-59
2023/09/19 04:13:33;;;;;;;5.55;4.30;;;39.10;1.00;;;;;;5031934;28;20033;-59
2023/09/19 04:15:58;;;;;;;5.82;4.47;;;39.00;1.00;;;;;;5031557;28;20018;-59
2023/09/19 04:18:25;;;;;;;6.85;4.53;;;39.10;1.00;;;;;;5031730;28;20041;-59
2023/09/19 04:20:50;;;;;;;5.80;4.70;;;39.10;1.00;;;;;;5031627;28;20107;-59
2023/09/19 04:23:16;;;;;;;8.15;4.72;;;39.10;1.00;;;;;;5031781;28;20459;-59
2023/09/19 04:25:43;;;;;;;9.05;5.05;;;39.10;1.00;;;;;;5031890;28;20009;-59
2023/09/19 04:28:10;;;;;;;7.15;5.00;;;39.10;1.00;;;;;;5031677;28;20044;-59
2023/09/19 04:30:42;;;;;;;15.18;5.30;;;39.00;1.00;;;;;;5031694;28;20021;-59
2023/09/19 04:33:08;;;;;;;8.48;5.40;;;39.10;1.00;;;;;;5031608;28;20428;-59
2023/09/19 04:35:34;;;;;;;7.38;5.53;;;39.00;1.00;;;;;;5031692;28;20036;-59
2023/09/19 04:38:00;;;;;;;9.80;5.63;;;39.00;1.00;;;;;;5031581;28;20163;-59
2023/09/19 04:40:29;;;;;;;10.30;5.93;;;39.00;1.00;;;;;;5013968;28;20030;-60
2023/09/19 04:42:56;;;;;;;6.18;5.40;;;39.00;1.00;;;;;;5031354;28;20025;-60
2023/09/19 04:45:23;;;;;;;10.45;6.28;;;38.90;1.00;;;;;;5031077;28;20052;-59
2023/09/19 04:47:48;;;;;;;6.32;5.50;;;39.00;1.00;;;;;;5031696;28;20053;-59
2023/09/19 04:50:14;;;;;;;7.05;5.30;;;39.00;1.00;;;;;;5031395;28;20424;-59
2023/09/19 04:52:44;;;;;;;6.78;5.85;;;;;;;;;;5031659;28;20013;-59
2023/09/19 04:55:19;;;;;;;9.93;5.50;;;;;;;;;;5013496;28;20018;-59
2023/09/19 04:57:49;;;;;;;8.80;5.75;;;;;;;;;;5017759;28;20049;-59
2023/09/19 05:00:16;;;;;;;9.18;5.75;;;;;;;;;;5031568;28;20033;-60
2023/09/19 05:02:42;;;;;;;7.20;5.40;;;;;;;;;;5031585;28;20025;-59
2023/09/19 05:05:10;;;;;;;7.90;5.80;;;;;;;;;;5031435;28;20462;-60
2023/09/19 05:07:36;;;;;;;10.23;6.03;;;;;;;;;;5031345;28;20018;-60
2023/09/19 05:10:05;;;;;;;7.50;5.68;;;;;;;;;;5031424;28;20107;-60
2023/09/19 05:12:31;;;;;;;7.45;5.25;;;;;;;;;;5031236;28;20113;-59
2023/09/19 05:14:57;;;;;;;8.30;5.93;;;;;;;;;;5031175;28;20025;-60
2023/09/19 05:17:24;;;;;;;7.32;5.55;;;;;;;;;;5013519;28;20022;-60
2023/09/19 05:19:50;;;;;;;7.80;5.68;;;;;;;;;;5013601;28;20144;-59
2023/09/19 05:22:18;;;;;;;6.95;6.00;;;;;;;;;;5031459;28;20512;-59
2023/09/19 05:24:47;;;;;;;6.43;5.38;;;;;;;;;;5013382;28;20356;-59
2023/09/19 05:27:13;;;;;;;6.75;5.53;;;;;;;;;;5014231;28;20060;-59
2023/09/19 05:29:41;;;;;;;12.30;5.93;;;;;;;;;;5031358;28;20030;-59
2023/09/19 05:32:07;;;;;;;10.68;5.75;;;;;;;;;;5030960;28;20025;-59
2023/09/19 05:34:33;;;;;;;8.23;5.90;;;;;;;;;;5031055;28;20054;-59
2023/09/19 05:36:59;;;;;;;17.73;6.22;;;;;;;;;;5031116;28;20107;-59
2023/09/19 05:39:26;;;;;;;7.32;5.85;;;;;;;;;;5031088;28;20464;-59
2023/09/19 05:41:52;;;;;;;8.82;5.75;;;;;;;;;;5030898;28;20383;-59
2023/09/19 05:44:18;;;;;;;9.25;5.97;;;;;;;;;;5031345;28;20048;-59
2023/09/19 05:46:45;;;;;;;9.80;6.28;;;;;;;;;;5030922;28;20017;-59
2023/09/19 05:49:11;;;;;;;9.43;6.30;;;;;;;;;;5030988;28;20443;-59
2023/09/19 05:51:37;;;;;;;9.02;6.50;;;;;;;;;;5013073;28;20021;-59
2023/09/19 05:54:05;;;;;;;12.65;6.03;;;;;;;;;;5030948;28;20021;-59
2023/09/19 05:56:31;;;;;;;8.73;5.47;;;;;;;;;;5034011;28;20037;-59
2023/09/19 05:58:57;;;;;;;9.80;5.90;;;;;;;;;;5034343;28;20033;-68
2023/09/19 06:01:23;;;;;;;10.00;5.78;;;;;;;;;;5034376;28;20017;-65
2023/09/19 06:03:49;;;;;;;8.57;6.50;;;;;;;;;;5022805;28;20045;-71
2023/09/19 06:06:15;;;;;;;8.52;6.55;;;;;;;;;;5034734;28;20025;-70
2023/09/19 06:08:44;;;;;;;8.43;5.63;;;;;;;;;;5016759;28;20036;-59
2023/09/19 06:11:10;;;;;;;11.05;7.32;;;;;;;;;;5034275;28;20068;-59
2023/09/19 06:13:39;;;;;;;12.27;7.45;;;;;;;;;;5034438;28;20021;-58
2023/09/19 06:16:05;;;;;;;10.25;7.55;;;;;;;;;;5034008;28;20013;-60
2023/09/19 06:18:33;;;;;;;11.43;8.45;;;;;;;;;;5034124;28;20042;-63
2023/09/19 06:20:59;;;;;;;11.25;9.00;;;;;;;;;;5033775;28;20148;-58
2023/09/19 06:23:26;;;;;;;12.45;8.27;;;;;;;;;;5034328;28;20040;-65
2023/09/19 06:25:53;;;;;;;9.68;8.18;;;;;;;;;;5032329;28;20021;-60
2023/09/19 06:28:23;;;;;;;12.80;7.68;;;;;;;;;;5033480;28;20025;-66
2023/09/19 06:30:49;;;;;;;9.75;7.95;;;;;;;;;;5033570;28;20018;-65
2023/09/19 06:33:17;;;;;;;11.88;7.97;;;;;;;;;;5033458;28;20101;-65
2023/09/19 06:35:46;;;;;;;14.25;8.73;;;;;;;;;;5033912;28;20033;-66
2023/09/19 06:38:13;;;;;;;10.38;8.73;;;;;;;;;;5033832;28;20036;-61
2023/09/19 06:40:40;;;;;;;10.82;8.63;;;;;;;;;;5031526;28;20364;-61
2023/09/19 06:43:06;;;;;;;13.18;8.95;;;;;;;;;;5013781;28;20459;-63
2023/09/19 06:45:32;;;;;;;11.52;8.20;;;;;;;;;;5032718;28;20026;-70
2023/09/19 06:47:59;;;;;;;11.18;8.48;;;;;;;;;;5033830;28;20031;-63
2023/09/19 06:53:31;;;;;;;11.98;9.07;;;;;;;;;;5021463;28;20025;-60
2023/09/19 06:55:58;;;;;;;13.20;8.57;;;;;;;;;;5036722;28;20120;-63
2023/09/19 06:58:24;;;;;;;15.63;8.88;;;;;;;;;;5031470;28;20155;-73
2023/09/19 07:00:50;;;;;;;12.98;9.30;;;;;;;;;;5030681;28;20018;-69
2023/09/19 07:03:18;;;;;;;14.05;9.15;;;;;;;;;;5030694;28;20049;-68
2023/09/19 07:05:44;;;;;;;11.18;8.70;;;;;;;;;;5031213;28;20131;-68
2023/09/19 07:08:12;;;;;;;12.32;9.32;;;;;;;;;;5024374;28;20029;-68
2023/09/19 07:10:40;;;;;;;11.68;9.93;;;;;;;;;;5031443;28;20534;-68
2023/09/19 07:13:10;;;;;;;12.20;9.43;;;;;;;;;;5030618;28;20437;-69
2023/09/19 07:15:39;;;;;;;11.32;10.07;;;;;;;;;;5031148;28;20017;-69
2023/09/19 07:18:05;;;;;;;14.63;10.35;;;;;;;;;;5028021;28;20176;-67
2023/09/19 07:20:32;;;;;;;16.88;11.95;;;;;;;;;;5019142;28;20053;-67
2023/09/19 07:23:01;;;;;;;13.25;10.82;;;;;;;;;;5024527;28;20029;-68
2023/09/19 07:25:27;;;;;;;14.05;11.13;;;;;;;;;;5027229;28;20056;-74
2023/09/19 07:27:55;;;;;;;13.57;11.23;;;;;;;;;;5029674;28;20021;-75
2023/09/19 07:30:21;;;;;;;15.20;11.55;;;;;;;;;;5027781;28;20033;-75
2023/09/19 07:32:49;;;;;;;15.82;12.60;;;;;;;;;;5032640;28;20053;-75
2023/09/19 07:35:15;;;;;;;17.10;13.18;;;;;;;;;;5007699;28;20037;-74
2023/09/19 07:37:41;;;;;;;13.35;10.25;;;;;;;;;;5028040;28;20105;-67
2023/09/19 07:40:08;;;;;;;14.45;11.13;;;;;;;;;;5029728;28;20414;-69
2023/09/19 07:42:35;;;;;;;14.00;10.88;;;;;;;;;;5010426;28;20460;-70
2023/09/19 07:45:01;;;;;;;13.35;11.85;;;;;;;;;;5028619;28;20068;-69
2023/09/19 07:47:27;;;;;;;22.25;13.13;;;;;;;;;;5027632;28;20100;-69
2023/09/19 07:49:55;;;;;;;16.52;12.13;;;;;;;;;;5024936;28;20170;-52
2023/09/19 07:52:22;;;;;;;20.63;13.65;;;;;;;;;;5029133;28;20025;-58
2023/09/19 07:54:49;;;;;;;15.68;13.32;;;;;;;;;;5028299;28;20045;-55
2023/09/19 08:00:18;;;;;;;20.60;14.13;;;;;;;;;;5024126;28;20079;-59
2023/09/19 08:02:45;;;;;;;15.90;12.77;;;;;;;;;;5028016;28;20030;-54
2023/09/19 08:05:15;;;;;;;15.27;12.73;;;;;;;;;;5010514;28;20029;-55
2023/09/19 08:07:41;;;;;;;18.40;14.25;;;;;;;;;;5009277;28;20518;-54
2023/09/19 08:10:12;;;;;;;14.50;11.48;;;;;;;;;;5028752;28;20029;-52
2023/09/19 08:12:45;;;;;;;12.45;10.80;;;;;;;;;;5028355;28;20125;-51
2023/09/19 08:15:11;;;;;;;17.10;11.52;;;;;;;;;;5027973;28;20484;-59
2023/09/19 08:17:38;;;;;;;14.43;9.40;;;;;;;;;;5028628;28;20044;-58
2023/09/19 08:20:05;;;;;;;10.52;9.40;;;;;;;;;;5026574;28;20040;-69
2023/09/19 08:22:31;;;;;;;11.13;8.48;;;;;;;;;;5026226;28;20104;-67
2023/09/19 08:24:58;;;;;;;11.30;7.80;;;;;;;;;;5028169;28;20460;-67
2023/09/19 08:27:26;;;;;;;10.85;7.78;;;;;;;;;;5025666;28;20048;-67
2023/09/19 08:29:53;;;;;;;13.30;7.00;;;;;;;;;;5026691;28;20112;-65
2023/09/19 08:32:24;;;;;;;11.90;7.88;;;;;;;;;;5028707;28;20120;-48
2023/09/19 08:34:50;;;;;;;8.68;6.53;;;;;;;;;;5028548;28;20039;-49
2023/09/19 08:37:18;;;;;;;8.60;6.72;;;;;;;;;;5031679;28;20028;-48
2023/09/19 08:39:44;;;;;;;10.02;5.80;;;;;;;;;;5031119;28;20136;-48
2023/09/19 08:42:12;;;;;;;10.80;6.57;;;;;;;;;;5030002;28;20014;-49
2023/09/19 08:44:40;;;;;;;11.05;6.80;;;;;;;;;;5027811;28;20376;-53
2023/09/19 08:47:10;;;;;;;9.45;6.40;;;;;;;;;;5029483;28;20105;-47
2023/09/19 08:49:43;;;;;;;13.40;7.53;;;;;;;;;;5029717;28;20104;-58
2023/09/19 08:52:23;;;;;;;11.55;7.55;;;;;;;;;;5031315;28;20030;-59
2023/09/19 08:54:53;;;;;;;9.65;7.80;;;;;;;;;;5012756;28;20053;-61
2023/09/19 08:57:22;;;;;;;9.38;6.75;;;;;;;;;;5030863;28;20120;-59
2023/09/19 08:59:49;;;;;;;11.48;7.95;;;;;;;;;;5030366;28;20025;-59
2023/09/19 09:02:18;;;;;;;10.93;7.45;;;;;;;;;;5041576;28;20025;-59
2023/09/19 09:04:45;;;;;;;15.90;9.27;;;;;;;;;;5030657;28;20022;-60
2023/09/19 09:07:16;;;;;;;9.90;7.97;;;;;;;;;;5029932;28;20426;-58
2023/09/19 09:09:43;;;;;;;10.77;7.32;;;;;;;;;;5030719;28;20473;-58
2023/09/19 09:12:14;;;;;;;9.27;6.82;;;;;;;;;;5032374;28;20352;-50
2023/09/19 09:14:49;;;;;;;14.93;7.63;;;;;;;;;;5013521;28;20018;-63
2023/09/19 09:17:17;;;;;;;11.85;8.00;;;;;;;;;;5029656;28;20050;-61
2023/09/19 09:19:43;;;;;;;10.48;7.85;;;;;;;;;;5039786;28;20111;-61
2023/09/19 09:22:10;;;;;;;13.57;8.43;;;;;;;;;;5030942;28;20108;-59
2023/09/19 09:24:38;;;;;;;14.35;8.52;;;;;;;;;;5030277;28;20036;-59
2023/09/19 09:27:07;;;;;;;11.27;7.60;;;;;;;;;;5030701;28;20057;-60
2023/09/19 09:29:41;;;;;;;9.48;7.10;;;;;;;;;;5031075;28;20104;-60
2023/09/19 09:32:26;;;;;;;11.10;7.93;;;;;;;;;;5030789;28;20029;-60
2023/09/19 09:34:53;;;;;;;12.27;8.68;;;;;;;;;;5034159;28;20022;-61
2023/09/19 09:37:20;;;;;;;14.02;7.65;;;;;;;;;;5034811;28;20033;-61
2023/09/19 09:39:53;;;;;;;11.20;7.20;;;;;;;;;;5034369;28;20037;-59
2023/09/19 09:42:33;;;;;;;11.98;6.63;;;;;;;;;;5015554;28;20056;-61
2023/09/19 09:45:15;;;;;;;12.30;8.45;;;;;;;;;;5034238;28;20026;-55
2023/09/19 09:47:54;;;;;;;15.23;8.70;;;;;;;;;;5034545;28;20017;-56
2023/09/19 09:50:51;;;;;;;13.38;9.30;;;;;;;;;;5033416;28;20490;-56
2023/09/19 09:53:28;;;;;;;10.23;7.90;;;;;;;;;;5032567;28;20049;-56
2023/09/19 09:56:09;;;;;;;16.00;9.05;;;;;;;;;;5034474;28;20132;-59
2023/09/19 09:58:55;;;;;;;11.68;8.02;;;;;;;;;;5034065;28;20037;-58
2023/09/19 10:01:26;;;;;;;13.95;8.40;;;;;;;;;;5034085;28;20021;-56
2023/09/19 10:03:57;;;;;;;7.55;6.75;;;;;;;;;;5034266;28;20410;-55
2023/09/19 10:09:11;;;;;;;9.50;7.00;;;;;;;;;;5034241;28;20207;-51
2023/09/19 10:11:56;;;;;;;13.40;6.72;;;;;;;;;;5034108;28;20022;-51
2023/09/19 10:14:25;;;;;;;11.48;7.22;;;;;;;;;;5033696;28;20491;-49
2023/09/19 10:16:56;;;;;;;11.02;7.72;;;;;;;;;;5034223;28;20025;-67
2023/09/19 10:19:30;;;;;;;10.77;7.80;;;;;;;;;;5033711;28;20037;-60
2023/09/19 10:21:56;;;;;;;16.15;7.90;;;;;;;;;;5034153;28;20408;-61
2023/09/19 10:24:24;;;;;;;10.93;7.97;;;;;;;;;;5034109;28;20077;-61
2023/09/19 10:26:51;;;;;;;9.98;7.00;;;;;;;;;;5033843;28;20021;-60
2023/09/19 10:29:18;;;;;;;11.48;7.78;;;;;;;;;;5033935;28;20048;-61
2023/09/19 10:31:47;;;;;;;14.40;8.50;;;;;;;;;;5033991;28;20371;-61
2023/09/19 10:34:14;;;;;;;8.88;7.68;;;;;;;;;;5033272;28;20025;-61
2023/09/19 10:36:43;;;;;;;11.70;7.10;;;;;;;;;;5033194;28;20025;-61
2023/09/19 10:39:12;;;;;;;8.55;5.80;;;;;;;;;;5022975;28;20126;-61
2023/09/19 10:41:38;;;;;;;7.30;5.90;;;;;;;;;;5014934;28;20026;-61
2023/09/19 10:44:05;;;;;;;9.68;5.28;;;;;;;;;;5033567;28;20037;-61
2023/09/19 10:46:33;;;;;;;10.43;5.63;;;;;;;;;;5033523;28;20032;-61
2023/09/19 10:49:03;;;;;;;10.85;6.30;;;;;;;;;;5033562;28;20036;-61
2023/09/19 10:51:40;;;;;;;9.93;6.20;;;;;;;;;;5033574;28;20025;-61
2023/09/19 10:54:13;;;;;;;12.40;6.53;;;;;;;;;;5033643;28;20051;-61
2023/09/19 10:56:44;;;;;;;8.52;6.00;;;;;;;;;;5033606;28;20029;-61
2023/09/19 10:59:16;;;;;;;10.52;5.13;;;;;;;;;;5033438;28;20032;-61
2023/09/19 11:01:44;;;;;;;10.75;5.97;;;;;;;;;;5033406;28;20060;-61
2023/09/19 11:04:29;;;;;;;8.07;6.00;;;;;;;;;;5033249;28;20025;-61
2023/09/19 11:07:11;;;;;;;7.38;5.18;;;;;;;;;;5048628;28;20025;-61
2023/09/19 11:09:43;;;;;;;7.90;5.97;;;;;;;;;;5048449;28;20033;-61
2023/09/19 11:12:09;;;;;;;14.48;10.05;;;;;;;;;;5033311;28;20076;-61
2023/09/19 11:14:39;;;;;;;10.98;6.25;;;;;;;;;;5032878;28;20451;-61
2023/09/19 11:17:06;;;;;;;8.63;6.30;;;;;;;;;;5030938;28;20033;-61
2023/09/19 11:19:53;;;;;;;13.40;7.68;;;;;;;;;;5028914;28;20058;-61
2023/09/19 11:22:22;;;;;;;12.38;7.03;;;;;;;;;;5029621;28;20137;-61
2023/09/19 11:24:48;;;;;;;9.80;5.80;;;;;;;;;;5026237;28;20429;-61
2023/09/19 11:27:17;;;;;;;9.38;7.07;;;;;;;;;;5027344;28;20037;-60
2023/09/19 11:29:43;;;;;;;9.45;6.32;;;;;;;;;;5014759;28;20021;-61
2023/09/19 11:32:09;;;;;;;9.27;7.22;;;;;;;;;;5032638;28;20036;-61
2023/09/19 11:34:44;;;;;;;8.02;5.45;;;;;;;;;;5032762;28;20018;-61
2023/09/19 11:37:11;;;;;;;9.35;5.38;;;;;;;;;;5032621;28;20417;-61
2023/09/19 11:39:42;;;;;;;7.97;5.28;;;;;;;;;;5032346;28;20064;-61
2023/09/19 11:42:27;;;;;;;9.60;6.43;;;;;;;;;;5032474;28;20021;-61
2023/09/19 11:44:55;;;;;;;8.60;5.20;;;;;;;;;;5032636;28;20026;-61
2023/09/19 11:47:24;;;;;;;7.68;5.80;;;;;;;;;;5032490;28;20019;-61
2023/09/19 11:49:53;;;;;;;10.73;7.43;;;;;;;;;;5014515;28;20067;-61
2023/09/19 11:52:24;;;;;;;8.88;6.55;;;38.90;1.00;;;;;;5032300;28;20102;-61
2023/09/19 11:54:57;;;;;;;9.27;5.90;;;41.50;99.90;;;;;;5032157;28;20364;-61
2023/09/19 11:57:24;;;;;;;9.52;5.18;;;41.50;99.90;;;;;;5032345;28;20016;-61
2023/09/19 11:59:53;;;;;;;10.60;5.63;;;41.60;99.90;;;;;;5032284;28;20396;-61
2023/09/19 12:02:39;;;;;;;7.47;5.68;;;41.60;99.90;;;;;;5032195;28;20026;-61
2023/09/19 12:05:05;;;;;;;8.05;5.53;;;41.60;99.90;;;;;;5032448;28;20067;-61
2023/09/19 12:07:47;;;;;;;6.57;5.45;;;41.70;99.90;;;;;;5024259;28;20021;-61
2023/09/19 12:10:16;;;;;;;9.40;6.47;;;;;;;;;;5014262;28;20365;-61
2023/09/19 12:12:48;;;;;;;8.68;5.30;;;;;;;;;;5031989;28;20091;-61
2023/09/19 12:15:14;;;;;;;7.20;4.68;;;;;;;;;;5030706;28;20014;-61
2023/09/19 12:17:42;;;;;;;10.25;5.50;;;;;;;;;;5025961;28;20471;-60
2023/09/19 12:20:13;;;;;;;7.05;4.80;;;;;;;;;;5030892;28;20041;-61
2023/09/19 12:22:46;;;;;;;8.52;5.50;;;;;;;;;;5032027;28;20053;-61
2023/09/19 12:25:12;;;;;;;7.90;4.90;;;;;;;;;;5032125;28;20069;-61
2023/09/19 12:27:52;;;;;;;6.13;5.00;;;;;;;;;;5031749;28;20414;-61
2023/09/19 12:30:19;;;;;;;7.45;5.45;;;;;;;;;;5031810;28;20036;-61
2023/09/19 12:32:45;;;;;;;5.97;4.53;;;;;;;;;;5031722;28;20052;-61
2023/09/19 12:35:28;;;;;;;6.07;5.05;;;;;;;;;;5031605;28;20017;-59
2023/09/19 12:37:55;;;;;;;7.65;4.90;;;;;;;;;;5031476;28;20031;-51
2023/09/19 12:40:22;;;;;;;9.90;4.80;;;;;;;;;;5031308;28;20056;-59
2023/09/19 12:42:49;;;;;;;7.82;5.50;;;;;;;;;;5013921;28;20222;-51
2023/09/19 12:45:17;;;;;;;6.03;4.45;;;;;;;;;;5031411;28;20046;-50
2023/09/19 12:48:01;;;;;;;8.57;5.30;;;;;;;;;;5031519;28;20537;-52
2023/09/19 12:53:32;;;;;;;6.85;4.65;;;;;;;;;;5027725;28;20102;-61
2023/09/19 12:55:59;;;;;;;6.55;4.90;;;;;;;;;;5019457;28;20022;-58
2023/09/19 12:58:25;;;;;;;7.43;4.65;;;;;;;;;;5031396;28;20102;-58
2023/09/19 13:00:51;;;;;;;8.23;5.05;;;;;;;;;;5031594;28;20124;-59
2023/09/19 13:03:35;;;;;;;8.60;5.03;;;;;;;;;;5031509;28;20021;-58
2023/09/19 13:06:03;;;;;;;7.03;4.28;;;;;;;;;;5034562;28;20100;-58
2023/09/19 13:08:33;;;;;;;6.90;4.85;;;;;;;;;;5035469;28;20374;-59
2023/09/19 13:11:06;;;;;;;6.47;4.70;;;;;;;;;;5035647;28;20033;-58
2023/09/19 13:13:33;;;;;;;5.35;4.88;;;;;;;;;;5035726;28;20018;-58
2023/09/19 13:16:01;;;;;;;6.55;5.05;;;;;;;;;;5035383;28;20040;-57
2023/09/19 13:18:27;;;;;;;10.45;4.75;;;;;;;;;;5035198;28;20021;-58
2023/09/19 13:21:14;;;;;;;5.90;4.63;;;;;;;;;;5034960;28;20133;-59
2023/09/19 13:23:42;;;;;;;6.47;4.90;;;;;;;;;;5035195;28;20032;-50
2023/09/19 13:26:08;;;;;;;9.18;4.85;;;;;;;;;;5035074;28;20474;-59
2023/09/19 13:28:34;;;;;;;5.82;4.50;;;;;;;;;;5035157;28;20026;-59
2023/09/19 13:31:01;;;;;;;7.25;4.50;;;;;;;;;;5035099;28;20128;-58
2023/09/19 13:33:27;;;;;;;5.78;4.68;;;;;;;;;;5035117;28;20479;-59
2023/09/19 13:35:53;;;;;;;4.43;4.03;;;;;;;;;;5035120;28;20029;-58
2023/09/19 13:38:22;;;;;;;6.15;4.40;;;;;;;;;;5035087;28;20176;-60
2023/09/19 13:40:52;;;;;;;4.38;4.03;;;;;;;;;;5034868;28;20032;-59
2023/09/19 13:43:18;;;;;;;5.40;3.88;;;;;;;;;;5034105;28;20055;-62
2023/09/19 13:45:44;;;;;;;5.28;3.50;;;;;;;;;;5032933;28;20056;-64
2023/09/19 13:48:11;;;;;;;4.18;3.88;;;;;;;;;;5022114;28;20021;-60
2023/09/19 13:50:41;;;;;;;8.02;4.13;;;;;;;;;;5027243;28;20109;-60
2023/09/19 13:53:23;;;;;;;5.18;3.78;;;;;;;;;;5031424;28;20394;-63
2023/09/19 13:55:49;;;;;;;3.95;3.60;;;;;;;;;;5030134;28;20479;-60
2023/09/19 13:58:15;;;;;;;4.95;4.32;;;;;;;;;;5032821;28;20029;-59
2023/09/19 14:00:41;;;;;;;3.58;3.20;;;;;;;;;;5031708;28;20535;-60
2023/09/19 14:03:07;;;;;;;6.32;3.28;;;;;;;;;;5034738;28;20053;-49
2023/09/19 14:05:33;;;;;;;13.50;4.80;;;;;;;;;;5031076;28;20465;-64
2023/09/19 14:07:59;;;;;;;3.35;2.97;;;;;;;;;;5026736;28;20176;-60
2023/09/19 14:10:27;;;;;;;5.88;3.22;;;;;;;;;;5030104;28;20391;-59
2023/09/19 14:12:53;;;;;;;6.00;3.05;;;;;;;;;;5030935;28;20108;-59
2023/09/19 14:15:19;;;;;;;4.35;2.83;;;;;;;;;;5024166;28;20033;-65
2023/09/19 14:17:46;;;;;;;3.92;2.53;;;;;;;;;;5018744;28;20053;-59
2023/09/19 14:20:12;;;;;;;7.22;3.03;;;;;;;;;;5029625;28;20128;-59
2023/09/19 14:22:38;;;;;;;4.20;3.30;;;;;;;;;;5030725;28;20450;-59
2023/09/19 14:25:05;;;;;;;9.63;2.90;;;;;;;;;;5026654;28;20085;-59
2023/09/19 14:27:31;;;;;;;4.18;3.08;;;;;;;;;;5034249;28;20037;-59
2023/09/19 14:29:57;;;;;;;6.55;3.42;;;;;;;;;;5034309;28;20028;-61
2023/09/19 14:32:23;;;;;;;5.60;2.80;;;;;;;;;;5032226;28;20029;-62
2023/09/19 14:34:49;;;;;;;4.72;3.05;;;;;;;;;;5030875;28;20057;-62
2023/09/19 14:37:21;;;;;;;4.70;2.95;;;;;;;;;;5031399;28;20028;-65
2023/09/19 14:39:47;;;;;;;5.45;2.83;;;;;;;;;;5031444;28;20152;-63
2023/09/19 14:42:17;;;;;;;4.68;2.83;;;;;;;;;;5033919;28;20467;-63
2023/09/19 14:44:43;;;;;;;4.15;2.70;;;;;;;;;;5015852;28;20025;-63